.
WxDataArchive / Data Records for 2014-12-21
2014-12-20 December 2014 2014-12-22

Data Records for Sunday, 21 December 2014

Time	Temp	Chill	HIndex	Humid	Dewpt	 Wind 	HiWind	WindDir	Rain 	Barom
-----	----	-----	------	-----	-----	------	------	-------	-----	-----
00:00	30.4	30.4	30.4	85	26.4	0	0	---	0.00	30.293 
00:05	30.4	30.4	30.4	85	26.4	0	0	---	0.00	30.293 
00:10	30.3	30.3	30.3	85	26.3	0	0	---	0.00	30.293 
00:15	30.3	30.3	30.3	85	26.3	0	0	---	0.00	30.293 
00:20	30.3	30.3	30.3	85	26.3	0	0	---	0.00	30.293 
00:25	30.3	30.3	30.3	85	26.3	0	0	---	0.00	30.293 
00:30	30.3	30.3	30.3	85	26.3	0	0	---	0.00	30.294 
00:35	30.4	30.4	30.4	86	26.7	0	0	---	0.00	30.294 
00:40	30.4	30.4	30.4	85	26.4	0	0	---	0.00	30.294 
00:45	30.6	30.6	30.6	85	26.6	0	0	---	0.00	30.291 
00:50	30.6	30.6	30.6	85	26.6	0	0	---	0.00	30.291 
00:55	30.7	30.7	30.7	85	26.7	0	0	---	0.00	30.291 
01:00	30.7	30.7	30.7	85	26.7	0	0	---	0.00	30.292 
01:05	30.9	30.9	30.9	85	26.9	0	1	292	0.00	30.292 
01:10	30.9	30.9	30.9	85	26.9	0	0	---	0.00	30.292 
01:15	31.0	31.0	31.0	85	27.0	0	0	---	0.00	30.290 
01:20	31.0	31.0	31.0	85	27.0	0	1	292	0.00	30.290 
01:25	31.0	31.0	31.0	84	26.7	0	0	---	0.00	30.290 
01:30	31.0	31.0	31.0	84	26.7	0	0	---	0.00	30.285 
01:35	31.0	31.0	31.0	84	26.7	0	0	---	0.00	30.285 
01:40	31.0	31.0	31.0	84	26.7	0	0	---	0.00	30.285 
01:45	30.9	30.9	30.9	84	26.6	0	0	---	0.00	30.283 
01:50	30.9	30.9	30.9	84	26.6	0	0	---	0.00	30.283 
01:55	30.9	30.9	30.9	84	26.6	0	0	---	0.00	30.283 
02:00	30.9	30.9	30.9	84	26.6	0	0	---	0.00	30.283 
02:05	30.7	30.7	30.7	84	26.4	0	0	---	0.00	30.283 
02:10	30.7	30.7	30.7	84	26.4	0	0	---	0.00	30.283 
02:15	30.7	30.7	30.7	84	26.4	0	0	---	0.00	30.290 
02:20	30.7	30.7	30.7	84	26.4	0	0	---	0.00	30.290 
02:25	30.7	30.7	30.7	84	26.4	0	0	---	0.00	30.290 
02:30	30.6	30.6	30.6	85	26.6	0	0	---	0.00	30.291 
02:35	30.6	30.6	30.6	85	26.6	0	0	---	0.00	30.291 
02:40	30.6	30.6	30.6	85	26.6	0	0	---	0.00	30.291 
02:45	30.6	30.6	30.6	85	26.6	0	0	---	0.00	30.299 
02:50	30.6	30.6	30.6	85	26.6	0	0	---	0.00	30.299 
02:55	30.6	30.6	30.6	85	26.6	0	0	---	0.00	30.299 
03:00	30.6	30.6	30.6	85	26.6	0	0	---	0.00	30.303 
03:05	30.6	30.6	30.6	85	26.6	0	0	---	0.00	30.303 
03:10	30.6	30.6	30.6	85	26.6	0	0	---	0.00	30.303 
03:15	30.6	30.6	30.6	85	26.6	0	0	---	0.00	30.302 
03:20	30.4	30.4	30.4	85	26.4	0	0	---	0.00	30.302 
03:25	30.4	30.4	30.4	85	26.4	0	0	---	0.00	30.302 
03:30	30.4	30.4	30.4	85	26.4	0	0	---	0.00	30.299 
03:35	30.4	30.4	30.4	85	26.4	0	0	---	0.00	30.299 
03:40	30.4	30.4	30.4	85	26.4	0	0	---	0.00	30.299 
03:45	30.4	30.4	30.4	85	26.4	0	0	---	0.00	30.298 
03:50	30.4	30.4	30.4	85	26.4	0	0	---	0.00	30.298 
03:55	30.4	30.4	30.4	85	26.4	0	0	---	0.00	30.298 
04:00	30.3	30.3	30.3	85	26.3	0	0	---	0.00	30.296 
04:05	30.3	30.3	30.3	85	26.3	0	0	---	0.00	30.296 
04:10	30.3	30.3	30.3	85	26.3	0	0	---	0.00	30.296 
04:15	30.3	30.3	30.3	86	26.6	0	0	---	0.00	30.294 
04:20	30.3	30.3	30.3	86	26.6	0	0	---	0.00	30.294 
04:25	30.3	30.3	30.3	86	26.6	0	0	---	0.00	30.294 
04:30	30.3	30.3	30.3	86	26.6	0	0	---	0.00	30.296 
04:35	30.3	30.3	30.3	86	26.6	0	0	---	0.00	30.296 
04:40	30.1	30.1	30.1	86	26.4	0	0	---	0.00	30.296 
04:45	30.1	30.1	30.1	86	26.4	0	0	---	0.00	30.297 
04:50	30.1	30.1	30.1	86	26.4	0	0	---	0.00	30.297 
04:55	30.1	30.1	30.1	86	26.4	0	0	---	0.00	30.297 
05:00	30.1	30.1	30.1	86	26.4	0	0	---	0.00	30.296 
05:05	30.1	30.1	30.1	87	26.7	0	0	---	0.00	30.296 
05:10	30.1	30.1	30.1	87	26.7	0	0	---	0.00	30.296 
05:15	30.1	30.1	30.1	87	26.7	0	0	---	0.00	30.296 
05:20	30.1	30.1	30.1	87	26.7	0	0	---	0.00	30.296 
05:25	30.1	30.1	30.1	87	26.7	0	0	---	0.00	30.296 
05:30	30.1	30.1	30.1	86	26.4	0	0	---	0.00	30.296 
05:35	30.1	30.1	30.1	86	26.4	0	0	---	0.00	30.296 
05:40	30.1	30.1	30.1	86	26.4	0	0	---	0.00	30.296 
05:45	30.1	30.1	30.1	86	26.4	0	0	---	0.00	30.299 
05:50	30.1	30.1	30.1	87	26.7	0	0	---	0.00	30.299 
05:55	30.1	30.1	30.1	87	26.7	0	0	---	0.00	30.299 
06:00	30.0	30.0	30.0	87	26.6	0	0	---	0.00	30.303 
06:05	30.0	30.0	30.0	87	26.6	0	0	---	0.00	30.303 
06:10	30.0	30.0	30.0	86	26.3	0	0	---	0.00	30.303 
06:15	30.0	30.0	30.0	86	26.3	0	0	---	0.00	30.301 
06:20	30.0	30.0	30.0	86	26.3	0	0	---	0.00	30.301 
06:25	30.0	30.0	30.0	86	26.3	0	0	---	0.00	30.301 
06:30	30.0	30.0	30.0	86	26.3	0	0	---	0.00	30.304 
06:35	30.0	30.0	30.0	86	26.3	0	1	292	0.00	30.304 
06:40	30.0	30.0	30.0	86	26.3	0	0	---	0.00	30.304 
06:45	29.8	29.8	29.8	86	26.1	0	0	---	0.00	30.307 
06:50	29.8	29.8	29.8	86	26.1	0	1	292	0.00	30.307 
06:55	29.8	29.8	29.8	86	26.1	0	0	---	0.00	30.307 
07:00	29.8	29.8	29.8	86	26.1	0	0	---	0.00	30.310 
07:05	29.8	29.8	29.8	86	26.1	0	0	---	0.00	30.310 
07:10	29.8	29.8	29.8	86	26.1	0	0	---	0.00	30.310 
07:15	29.8	29.8	29.8	86	26.1	0	0	---	0.00	30.308 
07:20	29.8	29.8	29.8	86	26.1	0	0	---	0.00	30.308 
07:25	29.7	29.7	29.7	86	26.0	0	0	---	0.00	30.308 
07:30	29.7	29.7	29.7	86	26.0	0	0	---	0.00	30.309 
07:35	29.7	29.7	29.7	85	25.8	0	1	292	0.00	30.309 
07:40	29.7	29.7	29.7	85	25.8	0	0	---	0.00	30.309 
07:45	29.7	29.7	29.7	85	25.8	0	0	---	0.00	30.308 
07:50	29.7	29.7	29.7	85	25.8	0	0	---	0.00	30.308 
07:55	29.7	29.7	29.7	85	25.8	0	0	---	0.00	30.308 
08:00	29.7	29.7	29.7	85	25.8	0	0	---	0.00	30.303 
08:05	29.7	29.7	29.7	85	25.8	0	0	---	0.00	30.303 
08:10	29.7	29.7	29.7	85	25.8	0	0	---	0.00	30.303 
08:15	29.7	29.7	29.7	85	25.8	0	1	292	0.00	30.296 
08:20	29.7	29.7	29.7	85	25.8	0	0	---	0.00	30.296 
08:25	29.7	29.7	29.7	85	25.8	0	1	292	0.00	30.296 
08:30	29.7	29.7	29.7	85	25.8	0	1	292	0.00	30.300 
08:35	29.7	29.7	29.7	85	25.8	0	1	292	0.00	30.300 
08:40	29.7	29.7	29.7	84	25.5	0	0	---	0.00	30.300 
08:45	29.8	29.8	29.8	84	25.6	0	1	292	0.00	30.300 
08:50	29.8	29.8	29.8	84	25.6	0	0	---	0.00	30.300 
08:55	30.0	30.0	30.0	84	25.8	0	1	292	0.00	30.300 
09:00	30.0	30.0	30.0	84	25.8	0	0	---	0.00	30.306 
09:05	30.0	30.0	30.0	84	25.8	0	1	292	0.00	30.306 
09:10	30.1	30.1	30.1	84	25.9	0	0	---	0.00	30.306 
09:15	30.3	30.3	30.3	83	25.8	0	1	292	0.00	30.309 
09:20	30.3	30.3	30.3	83	25.8	0	1	292	0.00	30.309 
09:25	30.3	30.3	30.3	82	25.5	0	1	292	0.00	30.309 
09:30	30.4	30.4	30.4	82	25.6	0	1	292	0.00	30.307 
09:35	30.6	30.6	30.6	82	25.8	0	1	292	0.00	30.307 
09:40	30.6	30.6	30.6	82	25.8	0	1	292	0.00	30.307 
09:45	30.7	30.7	30.7	81	25.6	0	2	292	0.00	30.308 
09:50	30.7	30.7	30.7	81	25.6	0	1	292	0.00	30.308 
09:55	30.9	30.9	30.9	81	25.8	0	2	292	0.00	30.308 
10:00	31.0	31.0	31.0	81	25.9	0	1	292	0.00	30.309 
10:05	31.0	31.0	31.0	81	25.9	0	1	292	0.00	30.309 
10:10	31.2	31.2	31.2	80	25.8	0	1	292	0.00	30.309 
10:15	31.2	31.2	31.2	80	25.8	0	1	292	0.00	30.311 
10:20	31.3	31.3	31.3	80	25.9	0	1	292	0.00	30.311 
10:25	31.5	31.5	31.5	80	26.1	0	1	292	0.00	30.311 
10:30	31.5	31.5	31.5	79	25.8	1	5	135	0.00	30.311 
10:35	31.3	31.3	31.3	78	25.3	1	5	112	0.00	30.311 
10:40	31.5	31.5	31.5	77	25.1	1	4	112	0.00	30.311 
10:45	31.5	31.5	31.5	77	25.1	1	5	90	0.00	30.310 
10:50	31.5	31.5	31.5	76	24.8	0	3	112	0.00	30.310 
10:55	31.6	31.6	31.6	76	24.9	0	3	112	0.00	30.310 
11:00	31.6	31.6	31.6	75	24.6	1	6	68	0.00	30.309 
11:05	31.8	31.8	31.8	75	24.8	1	4	90	0.00	30.309 
11:10	31.8	31.8	31.8	75	24.8	1	4	90	0.00	30.309 
11:15	31.8	31.8	31.8	75	24.8	1	4	90	0.00	30.303 
11:20	31.9	31.9	31.9	75	24.9	0	1	90	0.00	30.303 
11:25	32.2	32.2	32.2	75	25.2	0	3	90	0.00	30.303 
11:30	32.4	32.4	32.4	75	25.4	0	2	90	0.00	30.298 
11:35	32.4	32.4	32.4	73	24.7	1	5	112	0.00	30.298 
11:40	32.2	32.2	32.2	73	24.5	1	4	112	0.00	30.298 
11:45	32.2	32.2	32.2	73	24.5	1	4	112	0.00	30.289 
11:50	32.4	32.4	32.4	73	24.7	0	3	112	0.00	30.289 
11:55	32.4	32.4	32.4	73	24.7	1	4	112	0.00	30.289 
12:00	32.5	32.5	32.5	73	24.8	1	3	112	0.00	30.280 
12:05	32.7	32.7	32.7	73	25.0	0	2	112	0.00	30.280 
12:10	32.9	32.9	32.9	73	25.2	0	2	112	0.00	30.280 
12:15	32.9	32.9	32.9	72	24.9	0	3	112	0.00	30.272 
12:20	32.9	32.9	32.9	72	24.9	1	3	112	0.00	30.272 
12:25	33.1	33.1	33.1	72	25.1	0	3	68	0.00	30.272 
12:30	33.2	33.2	33.2	72	25.2	0	2	112	0.00	30.259 
12:35	33.4	33.4	33.4	73	25.7	0	2	112	0.00	30.259 
12:40	33.7	33.7	33.7	71	25.3	0	3	112	0.00	30.259 
12:45	33.7	33.7	33.7	71	25.3	0	3	112	0.00	30.248 
12:50	33.8	33.8	33.8	70	25.1	1	4	112	0.00	30.248 
12:55	34.0	34.0	34.0	69	24.9	1	3	112	0.00	30.248 
13:00	34.0	34.0	34.0	69	24.9	0	3	112	0.00	30.242 
13:05	34.3	34.3	34.3	70	25.5	1	2	112	0.00	30.242 
13:10	34.4	34.4	34.4	69	25.3	1	4	112	0.00	30.242 
13:15	34.6	34.6	34.6	68	25.1	1	4	90	0.00	30.232 
13:20	34.4	34.4	34.4	69	25.3	1	3	112	0.00	30.232 
13:25	34.7	34.7	34.7	69	25.6	0	3	112	0.00	30.232 
13:30	34.9	34.9	34.9	69	25.8	0	4	112	0.00	30.229 
13:35	34.9	34.9	34.9	69	25.8	1	3	112	0.00	30.229 
13:40	34.9	34.9	34.9	68	25.4	1	5	112	0.00	30.229 
13:45	34.7	34.7	34.7	68	25.2	1	4	90	0.00	30.226 
13:50	34.9	34.9	34.9	69	25.8	0	2	68	0.00	30.226 
13:55	35.0	35.0	35.0	69	25.9	0	4	68	0.00	30.226 
14:00	35.2	35.2	35.2	69	26.1	0	1	90	0.00	30.222 
14:05	35.3	35.3	35.3	69	26.2	0	3	90	0.00	30.222 
14:10	35.2	35.2	35.2	67	25.4	1	4	90	0.00	30.222 
14:15	35.0	35.0	35.0	69	25.9	1	4	112	0.00	30.211 
14:20	34.9	34.9	34.9	69	25.8	0	2	112	0.00	30.211 
14:25	34.9	34.9	34.9	69	25.8	1	2	112	0.00	30.211 
14:30	34.9	34.9	34.9	69	25.8	0	2	90	0.00	30.209 
14:35	34.9	34.9	34.9	68	25.4	1	5	90	0.00	30.209 
14:40	34.9	34.9	34.9	68	25.4	1	4	112	0.00	30.209 
14:45	34.9	34.9	34.9	69	25.8	1	3	112	0.00	30.206 
14:50	35.0	35.0	35.0	70	26.2	1	3	112	0.00	30.206 
14:55	35.0	35.0	35.0	68	25.5	1	6	112	0.00	30.206 
15:00	35.0	35.0	35.0	68	25.5	1	3	90	0.00	30.203 
15:05	34.9	34.9	34.9	69	25.8	1	4	90	0.00	30.203 
15:10	34.9	34.9	34.9	69	25.8	1	3	90	0.00	30.203 
15:15	34.9	34.9	34.9	70	26.1	1	3	90	0.00	30.197 
15:20	35.0	35.0	35.0	69	25.9	1	4	90	0.00	30.197 
15:25	35.0	35.0	35.0	69	25.9	0	3	135	0.00	30.197 
15:30	35.0	35.0	35.0	69	25.9	0	4	68	0.00	30.197 
15:35	35.2	35.2	35.2	69	26.1	0	2	158	0.00	30.197 
15:40	35.3	35.3	35.3	69	26.2	1	4	90	0.00	30.197 
15:45	35.2	35.2	35.2	69	26.1	0	3	90	0.00	30.194 
15:50	35.2	35.2	35.2	69	26.1	1	9	90	0.00	30.194 
15:55	34.9	34.9	34.9	69	25.8	1	9	90	0.00	30.194 
16:00	34.9	34.9	34.9	70	26.1	1	5	90	0.00	30.190 
16:05	34.7	34.7	34.7	70	25.9	0	4	112	0.00	30.190 
16:10	34.7	34.7	34.7	70	25.9	1	4	112	0.00	30.190 
16:15	34.6	34.6	34.6	71	26.2	1	4	112	0.00	30.185 
16:20	34.6	34.6	34.6	71	26.2	1	4	90	0.00	30.185 
16:25	34.6	34.6	34.6	71	26.2	1	3	112	0.00	30.185 
16:30	34.6	34.6	34.6	70	25.8	0	3	90	0.00	30.192 
16:35	34.6	34.6	34.6	71	26.2	1	4	90	0.00	30.192 
16:40	34.6	34.6	34.6	71	26.2	0	2	90	0.00	30.192 
16:45	34.4	34.4	34.4	71	26.0	0	3	90	0.00	30.195 
16:50	34.4	34.4	34.4	71	26.0	0	2	90	0.00	30.195 
16:55	34.1	34.1	34.1	71	25.7	0	2	90	0.00	30.195 
17:00	34.0	34.0	34.0	72	25.9	0	1	90	0.00	30.189 
17:05	33.7	33.7	33.7	73	26.0	0	1	90	0.00	30.189 
17:10	33.5	33.5	33.5	73	25.8	0	2	90	0.00	30.189 
17:15	33.2	33.2	33.2	73	25.5	0	2	90	0.00	30.189 
17:20	33.1	33.1	33.1	74	25.7	0	1	90	0.00	30.189 
17:25	32.8	32.8	32.8	74	25.4	0	0	---	0.00	30.189 
17:30	32.7	32.7	32.7	74	25.3	0	2	90	0.00	30.188 
17:35	32.4	32.4	32.4	75	25.4	0	0	---	0.00	30.188 
17:40	32.2	32.2	32.2	75	25.2	0	0	---	0.00	30.188 
17:45	31.9	31.9	31.9	76	25.2	0	0	---	0.00	30.192 
17:50	31.8	31.8	31.8	76	25.1	0	1	90	0.00	30.192 
17:55	31.6	31.6	31.6	77	25.2	0	0	---	0.00	30.192 
18:00	31.5	31.5	31.5	77	25.1	0	0	---	0.00	30.190 
18:05	31.3	31.3	31.3	77	24.9	0	1	90	0.00	30.190 
18:10	31.2	31.2	31.2	78	25.2	0	1	90	0.00	30.190 
18:15	31.2	31.2	31.2	78	25.2	0	1	90	0.00	30.193 
18:20	31.0	31.0	31.0	78	25.0	0	0	---	0.00	30.193 
18:25	30.9	30.9	30.9	78	24.9	0	0	---	0.00	30.193 
18:30	30.7	30.7	30.7	79	25.0	0	0	---	0.00	30.187 
18:35	30.7	30.7	30.7	79	25.0	0	1	90	0.00	30.187 
18:40	30.6	30.6	30.6	80	25.2	0	0	---	0.00	30.187 
18:45	30.6	30.6	30.6	80	25.2	0	0	---	0.00	30.189 
18:50	30.6	30.6	30.6	80	25.2	0	1	90	0.00	30.189 
18:55	30.4	30.4	30.4	80	25.0	0	1	90	0.00	30.189 
19:00	30.4	30.4	30.4	81	25.3	0	2	90	0.00	30.189 
19:05	30.4	30.4	30.4	81	25.3	0	1	90	0.00	30.189 
19:10	30.6	30.6	30.6	81	25.5	0	2	90	0.00	30.189 
19:15	30.6	30.6	30.6	81	25.5	0	3	90	0.00	30.184 
19:20	30.6	30.6	30.6	81	25.5	0	2	90	0.00	30.184 
19:25	30.6	30.6	30.6	81	25.5	0	1	90	0.00	30.184 
19:30	30.4	30.4	30.4	81	25.3	0	3	90	0.00	30.179 
19:35	30.3	30.3	30.3	81	25.2	1	3	90	0.00	30.179 
19:40	30.1	30.1	30.1	82	25.3	1	3	90	0.00	30.179 
19:45	30.0	30.0	30.0	82	25.2	0	2	90	0.00	30.179 
19:50	29.8	29.8	29.8	82	25.0	0	2	90	0.00	30.179 
19:55	29.7	29.7	29.7	83	25.2	0	2	90	0.00	30.179 
20:00	29.5	29.5	29.5	83	25.0	1	3	90	0.00	30.179 
20:05	29.5	29.5	29.5	84	25.3	1	3	90	0.00	30.179 
20:10	29.5	29.5	29.5	84	25.3	1	4	90	0.00	30.179 
20:15	29.5	29.5	29.5	84	25.3	1	3	90	0.00	30.173 
20:20	29.7	29.7	29.7	84	25.5	2	5	90	0.00	30.173 
20:25	29.7	29.7	29.7	84	25.5	1	4	90	0.00	30.173 
20:30	29.7	29.7	29.7	84	25.5	1	3	90	0.00	30.171 
20:35	29.5	29.5	29.5	84	25.3	2	4	90	0.00	30.171 
20:40	29.4	29.4	29.4	84	25.2	1	3	90	0.00	30.171 
20:45	29.4	29.4	29.4	84	25.2	1	4	90	0.00	30.172 
20:50	29.4	29.4	29.4	84	25.2	1	5	90	0.00	30.172 
20:55	29.3	29.3	29.3	84	25.1	1	4	90	0.00	30.172 
21:00	29.3	29.3	29.3	84	25.1	1	3	90	0.00	30.174 
21:05	29.1	29.1	29.1	85	25.2	1	3	90	0.00	30.174 
21:10	29.0	29.0	29.0	85	25.1	1	3	90	0.00	30.174 
21:15	28.8	28.8	28.8	85	24.9	1	2	90	0.00	30.169 
21:20	28.8	28.8	28.8	85	24.9	1	3	90	0.00	30.169 
21:25	28.7	28.7	28.7	85	24.8	1	3	90	0.00	30.169 
21:30	28.7	28.7	28.7	85	24.8	1	4	90	0.00	30.165 
21:35	28.5	28.5	28.5	86	24.9	1	4	90	0.00	30.165 
21:40	28.4	28.4	28.4	86	24.8	1	3	90	0.00	30.165 
21:45	28.2	28.2	28.2	86	24.6	1	3	90	0.00	30.162 
21:50	28.2	28.2	28.2	86	24.6	0	3	90	0.00	30.162 
21:55	28.1	28.1	28.1	86	24.5	0	2	90	0.00	30.162 
22:00	28.1	28.1	28.1	86	24.5	0	2	90	0.00	30.163 
22:05	27.9	27.9	27.9	87	24.5	0	2	90	0.00	30.163 
22:10	27.8	27.8	27.8	87	24.4	0	2	90	0.00	30.163 
22:15	27.8	27.8	27.8	87	24.4	0	1	90	0.00	30.165 
22:20	27.6	27.6	27.6	87	24.2	0	1	90	0.00	30.165 
22:25	27.5	27.5	27.5	87	24.1	0	0	---	0.00	30.165 
22:30	27.3	27.3	27.3	87	24.0	0	0	---	0.00	30.165 
22:35	27.2	27.2	27.2	87	23.9	0	0	---	0.00	30.165 
22:40	27.2	27.2	27.2	87	23.9	0	0	---	0.00	30.165 
22:45	27.0	27.0	27.0	87	23.7	0	1	90	0.00	30.155 
22:50	26.9	26.9	26.9	88	23.8	0	2	90	0.00	30.155 
22:55	26.9	26.9	26.9	88	23.8	0	2	90	0.00	30.155 
23:00	26.9	26.9	26.9	88	23.8	0	1	90	0.00	30.150 
23:05	26.9	26.9	26.9	88	23.8	0	3	90	0.00	30.150 
23:10	26.9	26.9	26.9	88	23.8	0	2	90	0.00	30.150 
23:15	26.9	26.9	26.9	88	23.8	0	1	90	0.00	30.145 
23:20	26.7	26.7	26.7	88	23.6	0	1	90	0.00	30.145 
23:25	26.7	26.7	26.7	88	23.6	0	0	---	0.00	30.145 
23:30	26.6	26.6	26.6	88	23.5	0	1	90	0.00	30.151 
23:35	26.6	26.6	26.6	88	23.5	0	1	90	0.00	30.151 
23:40	26.4	26.4	26.4	88	23.3	0	3	90	0.00	30.151 
23:45	26.4	26.4	26.4	88	23.3	0	2	90	0.00	30.147 
23:50	26.3	26.3	26.3	88	23.2	0	3	90	0.00	30.147 
23:55	26.1	26.1	26.1	88	23.0	0	2	90	0.00	30.147 

CoCoRaHS
IN-AL-39
A2 Web Hosting
Creative Commons License
GoDaddy
search engine by freefind advanced

loaded 2018-11-17 13:14:37 • last modified 2010-11-18 10:43:29
Privacy PolicyDisclaimer
• wx.awcolley.com is powered by PmWiki v.2002016 •
• all content (unless otherwise noted) © 2018 A W Colley